Time;durP1;ratioP1;P1;durP2;ratioP2;P2;SDS_P1;SDS_P2;PMS_P1;PMS_P2;Temp;Humidity;BMP_temperature;BMP_pressure;BME280_temperature;BME280_humidity;BME280_pressure;Samples;Min_cycle;Max_cycle;Signal;HPM_P1;HPM_P2
2021/12/02 00:00:51;;;;;;;13.70;1.70;;;3.60;99.90;;;;;;5085830;28;20122;-76
2021/12/02 00:03:18;;;;;;;12.25;1.63;;;3.60;99.90;;;;;;5073748;28;20040;-76
2021/12/02 00:05:43;;;;;;;13.57;1.65;;;3.60;99.90;;;;;;5083212;28;20048;-76
2021/12/02 00:08:09;;;;;;;10.82;1.30;;;3.50;99.90;;;;;;5076733;28;20437;-76
2021/12/02 00:10:36;;;;;;;9.07;1.38;;;3.50;99.90;;;;;;5092205;28;20048;-76
2021/12/02 00:13:02;;;;;;;13.93;1.30;;;3.50;99.90;;;;;;5062228;28;20040;-77
2021/12/02 00:15:35;;;;;;;10.05;1.75;;;3.40;99.90;;;;;;5094505;28;20111;-77
2021/12/02 00:21:03;;;;;;;11.77;1.58;;;3.30;99.90;;;;;;5078595;28;20079;-76
2021/12/02 00:23:29;;;;;;;11.40;1.20;;;3.30;99.90;;;;;;5070475;28;20044;-76
2021/12/02 00:26:00;;;;;;;9.30;1.77;;;3.30;99.90;;;;;;5069512;28;20479;-77
2021/12/02 00:28:28;;;;;;;9.13;1.58;;;3.30;99.90;;;;;;5086614;28;20048;-76
2021/12/02 00:30:55;;;;;;;9.77;1.20;;;3.30;99.90;;;;;;5065295;28;20417;-77
2021/12/02 00:33:25;;;;;;;11.68;2.17;;;3.30;99.90;;;;;;5082155;28;20039;-80
2021/12/02 00:35:52;;;;;;;12.75;1.55;;;3.30;99.90;;;;;;5061986;28;20044;-76
2021/12/02 00:38:20;;;;;;;8.73;1.08;;;3.40;99.90;;;;;;5086570;28;20123;-75
2021/12/02 00:40:46;;;;;;;5.90;1.10;;;3.40;99.90;;;;;;5084464;28;20040;-76
2021/12/02 00:43:13;;;;;;;6.78;0.60;;;3.50;99.90;;;;;;5071674;28;20111;-76
2021/12/02 00:45:40;;;;;;;3.42;0.55;;;3.50;99.90;;;;;;5087735;28;20059;-76
2021/12/02 00:48:12;;;;;;;5.75;0.77;;;3.60;99.90;;;;;;5069461;28;20040;-76
2021/12/02 00:50:40;;;;;;;9.38;0.70;;;3.70;99.90;;;;;;5073926;28;20109;-76
2021/12/02 00:53:07;;;;;;;2.67;0.40;;;3.70;99.90;;;;;;5062885;28;20036;-76
2021/12/02 00:55:37;;;;;;;2.92;0.57;;;3.70;99.90;;;;;;5076796;28;20444;-76
2021/12/02 00:58:03;;;;;;;5.50;0.82;;;3.70;99.90;;;;;;5069433;28;20079;-76
2021/12/02 01:00:29;;;;;;;7.43;0.63;;;3.80;99.90;;;;;;5090957;28;20706;-76
2021/12/02 01:02:58;;;;;;;4.13;0.50;;;3.70;99.90;;;;;;5065879;28;20209;-76
2021/12/02 01:05:25;;;;;;;1.50;0.45;;;3.70;99.90;;;;;;5074722;28;20052;-75
2021/12/02 01:07:52;;;;;;;3.35;0.50;;;3.70;99.90;;;;;;5083292;28;20029;-77
2021/12/02 01:10:19;;;;;;;3.92;0.60;;;4.40;99.90;;;;;;5076078;28;20039;-76
2021/12/02 01:12:46;;;;;;;5.32;1.33;;;3.80;99.90;;;;;;5067062;28;20046;-76
2021/12/02 01:15:13;;;;;;;4.07;0.75;;;3.80;99.90;;;;;;5090132;28;20119;-77
2021/12/02 01:17:39;;;;;;;3.15;0.57;;;3.80;99.90;;;;;;5086116;28;20082;-76
2021/12/02 01:20:05;;;;;;;4.47;0.50;;;4.10;99.90;;;;;;5071518;28;20082;-77
2021/12/02 01:22:35;;;;;;;5.45;0.57;;;3.70;99.90;;;;;;5072106;28;20064;-77
2021/12/02 01:25:02;;;;;;;3.67;0.55;;;3.70;99.90;;;;;;5084383;28;20099;-77
2021/12/02 01:27:28;;;;;;;6.38;0.73;;;3.60;99.90;;;;;;5070283;28;20039;-77
2021/12/02 01:29:55;;;;;;;3.33;0.57;;;3.60;99.90;;;;;;5062177;28;20049;-77
2021/12/02 01:32:22;;;;;;;3.28;0.40;;;3.60;99.90;;;;;;5080696;28;20032;-76
2021/12/02 01:34:50;;;;;;;6.75;0.70;;;3.60;99.90;;;;;;5083443;28;20595;-77
2021/12/02 01:37:16;;;;;;;2.45;0.52;;;3.60;99.90;;;;;;5066922;28;20374;-77
2021/12/02 01:39:42;;;;;;;3.33;0.60;;;3.50;99.90;;;;;;5077360;28;20076;-77
2021/12/02 01:42:13;;;;;;;8.57;1.13;;;3.50;99.90;;;;;;5074710;28;20580;-77
2021/12/02 01:44:40;;;;;;;;;;;3.50;99.90;;;;;;5073398;28;20575;-76
2021/12/02 01:47:13;;;;;;;6.03;0.60;;;3.50;99.90;;;;;;5077964;28;19920;-77
2021/12/02 01:49:42;;;;;;;10.10;0.88;;;3.60;99.90;;;;;;5084763;28;20437;-76
2021/12/02 01:52:11;;;;;;;6.63;0.77;;;3.60;99.90;;;;;;5058144;28;20041;-77
2021/12/02 01:54:43;;;;;;;8.43;1.30;;;3.60;99.90;;;;;;5064167;28;20409;-76
2021/12/02 01:57:26;;;;;;;6.07;0.80;;;3.60;99.90;;;;;;5066908;28;20048;-76
2021/12/02 01:59:56;;;;;;;10.20;1.13;;;3.50;99.90;;;;;;5092533;28;20047;-76
2021/12/02 02:02:23;;;;;;;9.10;1.00;;;3.50;99.90;;;;;;5056210;28;20045;-77
2021/12/02 02:04:50;;;;;;;9.73;1.27;;;3.50;99.90;;;;;;5061887;28;20040;-77
2021/12/02 02:07:17;;;;;;;6.25;0.98;;;3.50;99.90;;;;;;5077934;28;20063;-77
2021/12/02 02:09:44;;;;;;;6.57;0.93;;;3.50;99.90;;;;;;5077468;28;20036;-76
2021/12/02 02:12:12;;;;;;;5.22;0.80;;;3.50;99.90;;;;;;5074978;28;20803;-77
2021/12/02 02:14:39;;;;;;;4.90;1.25;;;3.40;99.90;;;;;;5080331;28;20498;-77
2021/12/02 02:17:17;;;;;;;6.45;0.65;;;3.40;99.90;;;;;;5086181;28;20052;-77
2021/12/02 02:19:42;;;;;;;5.22;0.80;;;3.40;99.90;;;;;;5070325;28;20051;-76
2021/12/02 02:22:08;;;;;;;8.90;1.00;;;3.40;99.90;;;;;;5073343;28;20039;-77
2021/12/02 02:24:34;;;;;;;10.05;1.13;;;2.80;99.90;;;;;;5074330;28;20051;-77
2021/12/02 02:27:02;;;;;;;6.53;0.63;;;3.30;99.90;;;;;;5071407;28;20404;-76
2021/12/02 02:29:27;;;;;;;8.43;0.90;;;3.30;99.90;;;;;;5079069;28;20718;-77
2021/12/02 02:31:53;;;;;;;3.53;0.60;;;3.30;99.90;;;;;;5069776;28;20575;-77
2021/12/02 02:34:23;;;;;;;2.15;0.50;;;3.30;99.90;;;;;;5052733;28;20071;-77
2021/12/02 02:36:52;;;;;;;7.40;1.15;;;3.30;99.90;;;;;;5052297;28;20122;-76
2021/12/02 02:39:19;;;;;;;3.35;0.60;;;3.30;99.90;;;;;;5069284;28;20128;-77
2021/12/02 02:41:46;;;;;;;4.78;0.47;;;3.30;99.90;;;;;;5053250;28;20052;-77
2021/12/02 02:44:12;;;;;;;4.20;1.05;;;3.30;99.90;;;;;;5085411;28;20040;-76
2021/12/02 02:46:40;;;;;;;5.15;0.90;;;3.30;99.90;;;;;;5070372;28;20075;-76
2021/12/02 02:49:08;;;;;;;3.00;0.70;;;3.30;99.90;;;;;;5070567;28;20037;-76
2021/12/02 02:51:36;;;;;;;4.35;0.47;;;3.60;99.90;;;;;;5069010;28;20082;-76
2021/12/02 02:54:05;;;;;;;3.65;0.40;;;3.30;99.90;;;;;;5068186;28;20497;-76
2021/12/02 02:56:34;;;;;;;6.43;0.82;;;3.30;99.90;;;;;;5052692;28;20074;-76
2021/12/02 02:59:14;;;;;;;8.43;0.70;;;3.30;99.90;;;;;;5052740;28;21849;-77
2021/12/02 03:02:05;;;;;;;8.40;0.93;;;3.30;99.90;;;;;;5069980;28;20067;-76
2021/12/02 03:04:49;;;;;;;3.00;0.40;;;3.30;99.90;;;;;;5059486;28;20051;-76
2021/12/02 03:07:28;;;;;;;3.25;0.40;;;3.30;99.90;;;;;;5081110;28;20109;-76
2021/12/02 03:17:16;;;;;;;4.35;0.40;;;3.20;99.90;;;;;;5091907;28;20044;-76
2021/12/02 03:19:44;;;;;;;2.25;0.47;;;3.20;99.90;;;;;;5063592;28;20052;-76
2021/12/02 03:22:10;;;;;;;2.90;0.68;;;3.10;99.90;;;;;;5060007;28;20044;-76
2021/12/02 03:24:36;;;;;;;4.85;0.38;;;3.10;99.90;;;;;;5079944;28;20048;-76
2021/12/02 03:27:03;;;;;;;1.48;0.30;;;3.00;99.90;;;;;;5087607;28;20074;-76
2021/12/02 03:29:28;;;;;;;4.70;0.40;;;3.00;99.90;;;;;;5079551;28;20028;-77
2021/12/02 03:31:54;;;;;;;2.05;0.38;;;3.00;99.90;;;;;;5051385;28;20051;-77
2021/12/02 03:34:20;;;;;;;6.30;1.00;;;3.00;99.90;;;;;;5091936;28;20120;-77
2021/12/02 03:36:45;;;;;;;2.78;0.57;;;3.00;99.90;;;;;;5088358;28;20135;-76
2021/12/02 03:39:12;;;;;;;4.80;0.57;;;2.90;99.90;;;;;;5082062;28;20497;-77
2021/12/02 03:41:39;;;;;;;4.50;0.70;;;2.90;99.90;;;;;;5087522;28;20467;-77
2021/12/02 03:44:06;;;;;;;0.73;0.22;;;2.90;99.90;;;;;;5087492;28;20032;-76
2021/12/02 03:46:32;;;;;;;4.85;0.40;;;3.00;99.90;;;;;;5069819;28;20047;-77
2021/12/02 03:48:59;;;;;;;3.72;0.57;;;2.80;99.90;;;;;;5080232;28;20066;-77
2021/12/02 03:51:25;;;;;;;2.53;0.40;;;2.70;99.90;;;;;;5070562;28;20436;-77
2021/12/02 03:53:51;;;;;;;3.70;0.50;;;2.70;99.90;;;;;;5068991;28;20044;-76
2021/12/02 03:56:17;;;;;;;2.28;0.30;;;2.60;99.90;;;;;;5061223;28;20052;-77
2021/12/02 03:58:45;;;;;;;1.67;0.40;;;2.60;99.90;;;;;;5074159;28;20441;-77
2021/12/02 04:01:11;;;;;;;5.30;0.50;;;2.60;99.90;;;;;;5076234;28;20068;-77
2021/12/02 04:03:37;;;;;;;2.30;0.45;;;2.50;99.90;;;;;;5063057;28;20109;-77
2021/12/02 04:06:04;;;;;;;2.95;0.50;;;2.50;99.90;;;;;;5072412;28;20777;-77
2021/12/02 04:11:24;;;;;;;4.53;0.52;;;2.40;99.90;;;;;;5084623;28;20098;-77
2021/12/02 04:16:18;;;;;;;2.17;0.40;;;2.30;99.90;;;;;;5076983;28;20068;-77
2021/12/02 04:18:44;;;;;;;3.40;0.40;;;2.20;99.90;;;;;;5055656;28;20330;-77
2021/12/02 04:21:11;;;;;;;0.60;0.30;;;2.20;99.90;;;;;;5087660;28;20044;-77
2021/12/02 04:23:37;;;;;;;2.58;0.80;;;2.10;99.90;;;;;;5057529;28;20052;-77
2021/12/02 04:26:03;;;;;;;7.05;0.63;;;2.20;99.90;;;;;;5071958;28;20126;-77
2021/12/02 04:28:28;;;;;;;2.55;0.50;;;2.10;99.90;;;;;;5072601;28;20259;-77
2021/12/02 04:30:54;;;;;;;4.13;0.50;;;2.10;99.90;;;;;;5087745;28;20040;-76
2021/12/02 04:33:20;;;;;;;3.55;0.52;;;2.10;99.90;;;;;;5085899;28;20101;-76
2021/12/02 04:35:45;;;;;;;3.33;0.38;;;2.10;99.90;;;;;;5090931;28;20044;-76
2021/12/02 04:38:11;;;;;;;3.90;0.68;;;2.10;99.90;;;;;;5076267;28;20431;-77
2021/12/02 04:40:40;;;;;;;4.78;0.70;;;2.10;99.90;;;;;;5086781;28;20137;-76
2021/12/02 04:43:06;;;;;;;7.10;0.77;;;2.10;99.90;;;;;;5056039;28;20044;-76
2021/12/02 04:45:33;;;;;;;6.47;1.10;;;2.20;99.90;;;;;;5065569;28;20054;-76
2021/12/02 04:47:58;;;;;;;3.38;0.38;;;2.20;99.90;;;;;;5084486;28;20044;-76
2021/12/02 04:50:24;;;;;;;4.28;0.60;;;2.20;99.90;;;;;;5085241;28;20036;-77
2021/12/02 04:52:52;;;;;;;3.67;0.60;;;2.30;99.90;;;;;;5068435;28;20173;-76
2021/12/02 04:55:19;;;;;;;4.97;0.43;;;2.70;99.90;;;;;;5086330;28;20531;-76
2021/12/02 04:57:44;;;;;;;2.88;0.35;;;2.30;99.90;;;;;;5080450;28;20074;-76
2021/12/02 05:00:10;;;;;;;3.33;0.32;;;2.30;99.90;;;;;;5065195;28;20496;-76
2021/12/02 05:02:36;;;;;;;2.53;0.43;;;2.30;99.90;;;;;;5064264;28;20500;-77
2021/12/02 05:05:02;;;;;;;1.88;0.22;;;2.30;99.90;;;;;;5069517;28;20073;-77
2021/12/02 05:07:28;;;;;;;3.33;0.40;;;2.30;99.90;;;;;;5065952;28;20460;-77
2021/12/02 05:09:54;;;;;;;3.80;0.38;;;2.40;99.90;;;;;;5084544;28;20039;-77
2021/12/02 05:12:21;;;;;;;3.60;0.40;;;2.50;99.90;;;;;;5081790;28;20670;-77
2021/12/02 05:14:46;;;;;;;1.95;0.38;;;2.40;99.90;;;;;;5083167;28;20048;-76
2021/12/02 05:17:12;;;;;;;1.15;0.20;;;2.40;99.90;;;;;;5067181;28;20430;-77
2021/12/02 05:19:40;;;;;;;1.65;0.30;;;2.50;99.90;;;;;;5066895;28;20047;-76
2021/12/02 05:22:07;;;;;;;2.13;0.20;;;2.50;99.90;;;;;;5077187;28;20040;-75
2021/12/02 05:24:33;;;;;;;2.97;0.82;;;2.40;99.90;;;;;;5079244;28;20044;-76
2021/12/02 05:26:59;;;;;;;2.50;0.30;;;2.40;99.90;;;;;;5067291;28;20044;-76
2021/12/02 05:29:25;;;;;;;2.47;0.22;;;2.40;99.90;;;;;;5072859;28;20036;-77
2021/12/02 05:31:51;;;;;;;2.03;0.20;;;2.30;99.90;;;;;;5051249;28;20268;-76
2021/12/02 05:34:16;;;;;;;2.97;0.40;;;2.30;99.90;;;;;;5061721;28;20051;-76
2021/12/02 05:36:42;;;;;;;2.55;0.28;;;2.30;99.90;;;;;;5080564;28;20032;-77
2021/12/02 05:39:08;;;;;;;4.38;0.40;;;2.30;99.90;;;;;;5054415;28;20104;-77
2021/12/02 05:41:33;;;;;;;2.97;0.30;;;2.30;99.90;;;;;;5080295;28;20116;-77
2021/12/02 05:44:00;;;;;;;2.70;0.57;;;2.30;99.90;;;;;;5087793;28;20504;-77
2021/12/02 05:46:26;;;;;;;4.50;0.60;;;2.30;99.90;;;;;;5069256;28;20083;-78
2021/12/02 05:48:52;;;;;;;2.88;0.30;;;2.30;99.90;;;;;;5055313;28;20032;-77
2021/12/02 05:51:18;;;;;;;3.35;0.32;;;2.30;99.90;;;;;;5071530;28;20048;-77
2021/12/02 05:53:44;;;;;;;2.50;0.40;;;2.30;99.90;;;;;;5081320;28;20617;-77
2021/12/02 05:56:09;;;;;;;4.43;0.47;;;2.30;99.90;;;;;;5072785;28;20040;-76
2021/12/02 05:58:35;;;;;;;3.00;0.30;;;2.40;99.90;;;;;;5083867;28;20058;-76
2021/12/02 06:01:01;;;;;;;1.77;0.30;;;2.40;99.90;;;;;;5074737;28;20078;-76
2021/12/02 06:03:27;;;;;;;1.33;0.30;;;2.40;99.90;;;;;;5060606;28;20086;-76
2021/12/02 06:05:52;;;;;;;3.10;0.50;;;2.40;99.90;;;;;;5077452;28;20564;-76
2021/12/02 06:08:18;;;;;;;1.45;0.38;;;2.40;99.90;;;;;;5091082;28;20044;-76
2021/12/02 06:10:44;;;;;;;0.15;0.10;;;2.40;99.90;;;;;;5065969;28;20742;-76
2021/12/02 06:13:10;;;;;;;2.88;0.38;;;2.40;99.90;;;;;;5072114;28;20051;-77
2021/12/02 06:15:35;;;;;;;1.80;0.40;;;2.40;99.90;;;;;;5080458;28;20040;-77
2021/12/02 06:18:02;;;;;;;1.35;0.30;;;2.40;99.90;;;;;;5056905;28;20050;-77
2021/12/02 06:20:27;;;;;;;3.92;0.50;;;2.40;99.90;;;;;;5065108;28;20043;-77
2021/12/02 06:22:53;;;;;;;4.10;0.28;;;2.40;99.90;;;;;;5087482;28;20559;-76
2021/12/02 06:27:53;;;;;;;0.45;0.20;;;2.40;99.90;;;;;;5070168;28;20457;-77
2021/12/02 06:30:21;;;;;;;1.48;0.30;;;2.40;99.90;;;;;;5088066;28;20051;-77
2021/12/02 06:32:47;;;;;;;2.25;0.35;;;2.40;99.90;;;;;;5070792;28;20051;-77
2021/12/02 06:35:13;;;;;;;3.95;0.40;;;2.40;99.90;;;;;;5054537;28;20619;-77
2021/12/02 06:37:39;;;;;;;3.72;0.50;;;2.50;99.90;;;;;;5087209;28;20094;-77
2021/12/02 06:40:07;;;;;;;3.67;0.40;;;2.40;99.90;;;;;;5074966;28;20142;-77
2021/12/02 06:42:32;;;;;;;5.05;0.30;;;2.40;99.90;;;;;;5068331;28;20040;-77
2021/12/02 06:44:59;;;;;;;3.00;0.38;;;2.40;99.90;;;;;;5071433;28;20121;-77
2021/12/02 06:47:31;;;;;;;4.10;0.60;;;2.40;99.90;;;;;;5070358;28;20417;-78
2021/12/02 06:50:00;;;;;;;5.20;1.08;;;2.40;99.90;;;;;;5080818;28;20097;-77
2021/12/02 06:52:27;;;;;;;3.15;0.60;;;2.40;99.90;;;;;;5072893;28;20036;-77
2021/12/02 06:54:53;;;;;;;1.33;0.32;;;2.50;99.90;;;;;;5070925;28;20119;-78
2021/12/02 06:57:19;;;;;;;3.17;0.50;;;2.40;99.90;;;;;;5070996;28;20051;-78
2021/12/02 06:59:45;;;;;;;3.00;0.50;;;2.50;99.90;;;;;;5090173;28;20047;-77
2021/12/02 07:02:11;;;;;;;4.63;0.77;;;2.50;99.90;;;;;;5095540;28;20035;-77
2021/12/02 07:04:37;;;;;;;7.00;0.70;;;2.50;99.90;;;;;;5082041;28;20040;-77
2021/12/02 07:07:03;;;;;;;4.55;0.75;;;2.50;99.90;;;;;;5091415;28;20043;-77
2021/12/02 07:09:28;;;;;;;2.90;0.75;;;2.50;99.90;;;;;;5071489;28;20152;-77
2021/12/02 07:11:54;;;;;;;5.20;0.98;;;2.50;99.90;;;;;;5090501;28;20035;-77
2021/12/02 07:14:21;;;;;;;5.05;0.90;;;2.50;99.90;;;;;;5085791;28;20036;-77
2021/12/02 07:16:47;;;;;;;5.53;1.00;;;2.50;99.90;;;;;;5068081;28;20135;-78
2021/12/02 07:19:12;;;;;;;4.13;0.80;;;2.50;99.90;;;;;;5088359;28;20190;-77
2021/12/02 07:21:40;;;;;;;3.53;1.05;;;2.50;99.90;;;;;;5070106;28;20040;-77
2021/12/02 07:24:13;;;;;;;7.20;1.10;;;2.60;99.90;;;;;;5074768;28;20036;-77
2021/12/02 07:26:41;;;;;;;3.30;1.10;;;2.60;99.90;;;;;;5067119;28;20040;-77
2021/12/02 07:29:15;;;;;;;3.17;0.90;;;2.50;99.90;;;;;;5066364;28;21272;-77
2021/12/02 07:31:42;;;;;;;4.47;1.13;;;2.50;99.90;;;;;;5079240;28;20114;-76
2021/12/02 07:34:09;;;;;;;4.63;1.60;;;2.50;99.90;;;;;;5067281;28;20065;-77
2021/12/02 07:36:36;;;;;;;6.78;3.22;;;2.50;99.90;;;;;;5070936;28;20043;-77
2021/12/02 07:39:11;;;;;;;4.13;1.50;;;2.40;99.90;;;;;;5082288;28;20075;-76
2021/12/02 07:41:40;;;;;;;4.28;1.70;;;2.50;99.90;;;;;;5069014;28;20044;-76
2021/12/02 07:44:07;;;;;;;4.38;1.30;;;2.50;99.90;;;;;;5073674;28;20059;-76
2021/12/02 07:46:32;;;;;;;5.30;1.15;;;2.50;99.90;;;;;;5082987;28;20039;-76
2021/12/02 07:48:59;;;;;;;4.75;1.08;;;2.40;99.90;;;;;;5069338;28;20277;-77
2021/12/02 07:51:29;;;;;;;3.17;1.02;;;2.40;99.90;;;;;;5070537;28;20500;-78
2021/12/02 07:53:57;;;;;;;2.33;0.80;;;2.40;99.90;;;;;;5080616;28;20097;-77
2021/12/02 07:56:24;;;;;;;4.82;0.90;;;2.40;99.90;;;;;;5095900;28;20472;-77
2021/12/02 07:58:50;;;;;;;2.88;1.05;;;2.40;99.90;;;;;;5075756;28;20063;-78
2021/12/02 08:01:17;;;;;;;5.88;1.20;;;2.40;99.90;;;;;;5073032;28;20051;-78
2021/12/02 08:03:47;;;;;;;5.88;1.50;;;2.40;99.90;;;;;;5076955;28;20444;-77
2021/12/02 08:06:14;;;;;;;8.25;1.88;;;2.40;99.90;;;;;;5069229;28;20059;-77
2021/12/02 08:08:41;;;;;;;8.43;1.90;;;2.40;99.90;;;;;;5079047;28;20044;-77
2021/12/02 08:11:08;;;;;;;5.05;1.83;;;2.40;99.90;;;;;;5059841;28;20043;-77
2021/12/02 08:13:35;;;;;;;5.63;2.05;;;2.40;99.90;;;;;;5073078;28;20076;-76
2021/12/02 08:16:02;;;;;;;7.00;1.85;;;2.30;99.90;;;;;;5081150;28;20048;-77
2021/12/02 08:18:28;;;;;;;7.35;1.90;;;2.30;99.90;;;;;;5061003;28;20419;-77
2021/12/02 08:20:54;;;;;;;4.13;1.45;;;2.30;99.90;;;;;;5092045;28;20813;-77
2021/12/02 08:23:21;;;;;;;8.57;1.77;;;2.70;99.90;;;;;;5084418;27;20046;-76
2021/12/02 08:25:47;;;;;;;5.38;1.60;;;2.30;99.90;;;;;;5072161;28;20054;-78
2021/12/02 08:28:13;;;;;;;4.78;1.30;;;2.30;99.90;;;;;;5051757;28;20058;-78
2021/12/02 08:30:40;;;;;;;4.15;1.17;;;2.30;99.90;;;;;;5060611;28;20493;-78
2021/12/02 08:33:07;;;;;;;4.60;1.40;;;2.30;99.90;;;;;;5059595;28;20050;-78
2021/12/02 08:35:34;;;;;;;7.38;1.58;;;2.40;99.90;;;;;;5078916;28;20345;-77
2021/12/02 08:38:06;;;;;;;7.18;2.10;;;2.50;99.90;;;;;;5077697;28;20054;-78
2021/12/02 08:40:34;;;;;;;6.45;1.20;;;2.50;99.90;;;;;;5062086;28;20044;-77
2021/12/02 08:43:01;;;;;;;4.70;1.10;;;2.60;99.90;;;;;;5054665;28;20039;-77
2021/12/02 08:45:27;;;;;;;4.30;1.20;;;2.70;99.90;;;;;;5061188;28;20046;-78
2021/12/02 08:47:55;;;;;;;2.72;0.85;;;2.70;99.90;;;;;;5069929;28;20051;-78
2021/12/02 08:50:22;;;;;;;4.32;1.20;;;2.80;99.90;;;;;;5054760;28;20550;-78
2021/12/02 08:52:49;;;;;;;3.78;1.05;;;2.90;99.90;;;;;;5076522;28;20048;-77
2021/12/02 08:55:17;;;;;;;5.60;1.00;;;2.90;99.90;;;;;;5075329;28;20062;-77
2021/12/02 08:57:43;;;;;;;6.72;1.23;;;3.00;99.90;;;;;;5066893;28;20088;-77
2021/12/02 09:00:12;;;;;;;5.72;1.25;;;3.00;99.90;;;;;;5062113;28;20044;-78
2021/12/02 09:02:39;;;;;;;4.78;1.05;;;2.50;99.90;;;;;;5060937;28;20052;-77
2021/12/02 09:05:06;;;;;;;6.55;1.10;;;2.90;99.90;;;;;;5068672;28;20066;-77
2021/12/02 09:07:32;;;;;;;8.18;1.40;;;2.90;99.90;;;;;;5050679;28;20039;-78
2021/12/02 09:09:58;;;;;;;3.17;1.20;;;2.90;99.90;;;;;;5077964;28;20476;-77
2021/12/02 09:12:24;;;;;;;5.20;1.45;;;2.90;99.90;;;;;;5075431;28;20054;-78
2021/12/02 09:14:51;;;;;;;4.47;1.70;;;2.90;99.90;;;;;;5076820;28;20051;-78
2021/12/02 09:17:17;;;;;;;4.32;1.13;;;2.90;99.90;;;;;;5068505;28;20540;-78
2021/12/02 09:19:43;;;;;;;2.33;0.82;;;2.90;99.90;;;;;;5075663;28;20047;-78
2021/12/02 09:22:08;;;;;;;4.70;1.20;;;2.90;99.90;;;;;;5076274;27;20477;-78
2021/12/02 09:24:36;;;;;;;5.88;2.10;;;2.80;99.90;;;;;;5077439;28;20492;-79
2021/12/02 09:27:02;;;;;;;3.17;0.80;;;2.90;99.90;;;;;;5077254;28;20462;-78
2021/12/02 09:29:28;;;;;;;4.72;1.08;;;2.90;99.90;;;;;;5071039;28;20043;-78
2021/12/02 09:31:54;;;;;;;6.25;1.13;;;2.90;99.90;;;;;;5058767;28;20039;-78
2021/12/02 09:34:20;;;;;;;3.25;0.80;;;3.00;99.90;;;;;;5077789;28;20123;-78
2021/12/02 09:36:48;;;;;;;7.18;1.30;;;2.90;99.90;;;;;;5072712;28;20458;-78
2021/12/02 09:39:14;;;;;;;7.97;1.33;;;2.90;99.90;;;;;;5056929;28;20787;-78
2021/12/02 09:41:41;;;;;;;6.43;1.48;;;2.90;99.90;;;;;;5076790;28;20039;-78
2021/12/02 09:44:08;;;;;;;4.03;1.10;;;2.90;99.90;;;;;;5048115;28;20055;-79
2021/12/02 09:46:34;;;;;;;5.75;1.50;;;2.90;99.90;;;;;;5067509;28;20143;-79
2021/12/02 09:49:03;;;;;;;4.85;1.30;;;2.90;99.90;;;;;;5054812;28;20043;-78
2021/12/02 09:54:40;;;;;;;2.65;1.13;;;3.20;99.90;;;;;;5079866;28;20063;-78
2021/12/02 09:57:03;;;;;;;4.50;1.10;;;3.40;99.90;;;;;;5081427;28;20040;-79
2021/12/02 09:59:35;;;;;;;4.50;0.90;;;3.50;99.90;;;;;;5062494;28;20048;-78
2021/12/02 10:02:07;;;;;;;2.85;0.90;;;3.60;99.90;;;;;;5085064;28;20459;-78
2021/12/02 10:04:39;;;;;;;2.55;0.70;;;3.50;99.90;;;;;;5081178;28;20047;-78
2021/12/02 10:07:08;;;;;;;1.20;0.40;;;3.50;99.90;;;;;;5064534;28;20393;-78
2021/12/02 10:09:41;;;;;;;3.08;0.50;;;3.40;99.90;;;;;;5062009;28;20073;-79
2021/12/02 10:12:18;;;;;;;2.55;0.50;;;3.40;99.90;;;;;;5073943;28;20356;-79
2021/12/02 10:14:54;;;;;;;2.83;0.45;;;3.30;99.90;;;;;;5064460;28;20381;-78
2021/12/02 10:17:33;;;;;;;3.25;0.80;;;3.30;99.90;;;;;;5074292;28;20046;-79
2021/12/02 10:20:12;;;;;;;1.98;0.30;;;3.30;99.90;;;;;;5075984;28;20450;-78
2021/12/02 10:22:38;;;;;;;1.98;0.40;;;3.30;99.90;;;;;;5073622;28;20050;-79
2021/12/02 10:25:04;;;;;;;2.53;0.38;;;3.20;99.90;;;;;;5065814;28;20043;-79
2021/12/02 10:27:30;;;;;;;0.88;0.40;;;3.20;99.90;;;;;;5080179;28;20032;-78
2021/12/02 10:29:56;;;;;;;0.47;0.35;;;3.10;99.90;;;;;;5094889;28;20040;-79
2021/12/02 10:32:25;;;;;;;1.30;0.55;;;3.00;99.90;;;;;;5072033;28;20672;-79
2021/12/02 10:35:01;;;;;;;1.92;0.70;;;3.00;99.90;;;;;;5063872;28;20121;-79
2021/12/02 10:37:36;;;;;;;1.17;0.40;;;2.90;99.90;;;;;;5061114;28;20048;-79
2021/12/02 10:40:12;;;;;;;1.08;0.45;;;2.80;99.90;;;;;;5045182;28;20090;-79
2021/12/02 10:42:42;;;;;;;1.30;0.30;;;2.80;99.90;;;;;;5062263;28;20070;-79
2021/12/02 10:45:23;;;;;;;2.65;0.50;;;2.70;99.90;;;;;;5077493;28;20043;-78
2021/12/02 10:47:51;;;;;;;2.33;0.47;;;2.70;99.90;;;;;;5070475;28;20054;-78
2021/12/02 10:50:18;;;;;;;1.83;0.47;;;2.60;99.90;;;;;;5066088;28;20393;-79
2021/12/02 10:52:43;;;;;;;2.55;0.70;;;2.60;99.90;;;;;;5053971;28;20360;-79
2021/12/02 10:55:15;;;;;;;2.70;0.57;;;2.60;99.90;;;;;;5065126;28;20048;-79
2021/12/02 10:57:51;;;;;;;1.83;0.70;;;2.60;99.90;;;;;;5070317;28;20050;-81
2021/12/02 11:00:31;;;;;;;4.10;0.98;;;2.50;99.90;;;;;;5073317;28;20050;-79
2021/12/02 11:02:59;;;;;;;1.50;0.70;;;2.50;99.90;;;;;;5076527;28;20044;-79
2021/12/02 11:05:31;;;;;;;2.70;0.88;;;2.50;99.90;;;;;;5063290;28;20046;-79
2021/12/02 11:08:05;;;;;;;1.65;0.70;;;2.50;99.90;;;;;;5064810;28;20625;-79
2021/12/02 11:10:40;;;;;;;2.15;0.75;;;2.50;99.90;;;;;;5098763;28;20118;-80
2021/12/02 11:13:07;;;;;;;3.35;0.70;;;2.50;99.90;;;;;;5062184;28;20052;-78
2021/12/02 11:15:35;;;;;;;1.23;0.70;;;2.50;99.90;;;;;;5068284;28;20047;-79
2021/12/02 11:18:07;;;;;;;1.42;0.50;;;2.40;99.90;;;;;;5060217;28;20052;-79
2021/12/02 11:20:38;;;;;;;1.42;0.50;;;2.40;99.90;;;;;;5079709;28;20393;-78
2021/12/02 11:23:30;;;;;;;2.15;0.50;;;2.30;99.90;;;;;;5059685;28;20113;-78
2021/12/02 11:25:57;;;;;;;;;;;2.20;99.90;;;;;;5063587;28;20781;-78
2021/12/02 11:28:26;;;;;;;1.05;0.45;;;2.60;99.90;;;;;;5075887;28;20262;-79
2021/12/02 11:30:53;;;;;;;1.80;0.80;;;2.10;99.90;;;;;;5061051;28;20064;-79
2021/12/02 11:33:19;;;;;;;3.45;0.60;;;2.00;99.90;;;;;;5080124;28;20051;-79
2021/12/02 11:35:47;;;;;;;2.55;0.77;;;2.00;99.90;;;;;;5080305;28;20039;-79
2021/12/02 11:38:21;;;;;;;2.90;0.63;;;1.90;99.90;;;;;;5074652;28;20055;-79
2021/12/02 11:40:51;;;;;;;1.00;0.30;;;1.80;99.90;;;;;;5074885;28;20044;-79
2021/12/02 11:43:19;;;;;;;1.13;0.43;;;2.50;99.90;;;;;;5072857;28;20055;-79
2021/12/02 11:45:48;;;;;;;1.10;0.40;;;1.70;99.90;;;;;;5070169;28;20496;-80
2021/12/02 11:48:21;;;;;;;2.15;0.60;;;1.70;99.90;;;;;;5069393;28;20062;-79
2021/12/02 11:50:49;;;;;;;2.75;0.40;;;1.70;99.90;;;;;;5082971;27;20326;-80
2021/12/02 11:53:20;;;;;;;2.45;0.40;;;1.70;99.90;;;;;;5085513;27;20055;-80
2021/12/02 11:55:47;;;;;;;1.90;0.57;;;1.70;99.90;;;;;;5054734;28;20087;-80
2021/12/02 11:58:13;;;;;;;0.65;0.40;;;1.80;99.90;;;;;;5071696;28;20561;-80
2021/12/02 12:00:39;;;;;;;3.10;0.50;;;1.80;99.90;;;;;;5073244;28;20047;-80
2021/12/02 12:03:24;;;;;;;2.47;0.57;;;1.90;99.90;;;;;;5055656;28;20109;-80
2021/12/02 12:06:07;;;;;;;4.20;0.43;;;1.80;99.90;;;;;;5076706;28;20036;-80
2021/12/02 12:08:41;;;;;;;2.33;0.55;;;1.90;99.90;;;;;;5058883;28;20039;-79
2021/12/02 12:11:23;;;;;;;2.80;0.50;;;2.00;99.90;;;;;;5080293;28;20328;-79
2021/12/02 12:13:54;;;;;;;6.47;0.70;;;2.10;99.90;;;;;;5057851;28;20118;-79
2021/12/02 12:16:33;;;;;;;2.92;0.60;;;2.20;99.90;;;;;;5072097;28;21028;-79
2021/12/02 12:19:29;;;;;;;1.65;0.50;;;2.30;99.90;;;;;;5072719;28;20565;-80
2021/12/02 12:22:29;;;;;;;1.38;0.43;;;2.40;99.90;;;;;;5075676;28;20056;-80
2021/12/02 12:25:00;;;;;;;2.28;0.50;;;2.60;99.90;;;;;;5048019;28;20074;-81
2021/12/02 12:27:31;;;;;;;2.58;0.50;;;2.70;99.90;;;;;;5072313;28;20400;-80
2021/12/02 12:30:24;;;;;;;3.33;0.50;;;2.80;99.90;;;;;;5079015;28;20601;-79
2021/12/02 12:33:01;;;;;;;2.42;0.50;;;2.80;99.90;;;;;;5075301;28;20455;-79
2021/12/02 12:35:39;;;;;;;1.50;0.50;;;2.70;99.90;;;;;;5079834;28;20051;-79
2021/12/02 12:38:26;;;;;;;1.80;0.70;;;2.60;99.90;;;;;;5059124;28;20055;-79
2021/12/02 12:40:57;;;;;;;2.22;0.50;;;2.50;99.90;;;;;;5079610;28;20542;-80
2021/12/02 12:43:34;;;;;;;3.25;0.60;;;2.50;99.90;;;;;;5088734;27;20066;-79
2021/12/02 12:46:08;;;;;;;2.90;0.55;;;2.30;99.90;;;;;;5058141;28;20074;-79
2021/12/02 12:48:34;;;;;;;2.20;0.68;;;2.40;99.90;;;;;;5081324;28;20043;-80
2021/12/02 12:51:21;;;;;;;2.38;0.50;;;2.40;99.90;;;;;;5073288;28;20048;-79
2021/12/02 12:53:50;;;;;;;2.50;0.50;;;2.40;99.90;;;;;;5053138;28;20044;-80
2021/12/02 12:56:28;;;;;;;2.15;0.52;;;2.40;99.90;;;;;;5079603;28;20143;-80
2021/12/02 12:59:06;;;;;;;3.10;0.43;;;2.40;99.90;;;;;;5065062;28;20075;-79
2021/12/02 13:01:32;;;;;;;3.17;0.30;;;2.40;99.90;;;;;;5086708;27;20051;-80
2021/12/02 13:04:08;;;;;;;3.50;0.50;;;2.40;99.90;;;;;;5055118;28;20055;-79
2021/12/02 13:07:04;;;;;;;4.35;0.57;;;2.30;99.90;;;;;;5080372;28;21128;-79
2021/12/02 13:10:09;;;;;;;1.88;0.52;;;2.40;99.90;;;;;;5080120;28;20485;-79
2021/12/02 13:12:49;;;;;;;2.13;0.40;;;2.40;99.90;;;;;;5058869;28;20178;-79
2021/12/02 13:15:17;;;;;;;1.05;0.45;;;2.30;99.90;;;;;;5079276;28;20058;-80
2021/12/02 13:17:46;;;;;;;2.47;0.80;;;2.40;99.90;;;;;;5083240;28;20408;-80
2021/12/02 13:20:28;;;;;;;1.80;0.40;;;2.30;99.90;;;;;;5076835;28;20533;-80
2021/12/02 13:23:12;;;;;;;0.65;0.30;;;2.30;99.90;;;;;;5077758;28;20051;-80
2021/12/02 13:26:01;;;;;;;1.02;0.40;;;2.30;99.90;;;;;;5090526;28;20036;-80
2021/12/02 13:28:33;;;;;;;0.95;0.32;;;2.30;99.90;;;;;;5080600;28;20048;-80